Time;durP1;ratioP1;P1;durP2;ratioP2;P2;SDS_P1;SDS_P2;PMS_P1;PMS_P2;Temp;Humidity;BMP_temperature;BMP_pressure;BME280_temperature;BME280_humidity;BME280_pressure;Samples;Min_cycle;Max_cycle;Signal;HPM_P1;HPM_P2
2022/06/21 00:01:00;;;;;;;7.57;2.50;;;;;;;;;;5117330;27;20039;-79
2022/06/21 00:03:27;;;;;;;7.28;2.88;;;;;;;;;;5118326;27;20089;-79
2022/06/21 00:05:53;;;;;;;7.15;2.45;;;;;;;;;;5125111;27;20394;-79
2022/06/21 00:08:21;;;;;;;8.95;2.70;;;;;;;;;;5096334;27;20533;-79
2022/06/21 00:10:48;;;;;;;5.55;2.63;;;;;;;;;;5105297;28;20043;-79
2022/06/21 00:13:23;;;;;;;9.63;3.00;;;;;;;;;;5102510;28;20036;-79
2022/06/21 00:15:49;;;;;;;;;;;;;;;;;;5126040;27;20067;-79
2022/06/21 00:18:17;;;;;;;5.60;2.35;;;;;;;;;;5113050;27;19916;-79
2022/06/21 00:20:43;;;;;;;7.45;2.50;;;;;;;;;;5121981;27;20039;-79
2022/06/21 00:23:17;;;;;;;7.53;2.97;;;;;;;;;;5117272;27;20039;-79
2022/06/21 00:25:46;;;;;;;6.15;2.72;;;;;;;;;;5098818;27;20040;-79
2022/06/21 00:28:12;;;;;;;7.30;2.63;;;;;;;;;;5113743;27;20062;-79
2022/06/21 00:30:39;;;;;;;6.15;2.65;;;;;;;;;;5103734;28;20492;-79
2022/06/21 00:33:10;;;;;;;7.43;2.63;;;;;;;;;;5105021;27;20035;-79
2022/06/21 00:35:37;;;;;;;7.03;2.80;;;;;;;;;;5112936;27;20487;-79
2022/06/21 00:38:03;;;;;;;5.53;2.50;;;;;;;;;;5124328;27;20044;-79
2022/06/21 00:40:33;;;;;;;7.80;2.78;;;;;;;;;;5099751;27;20046;-79
2022/06/21 00:43:03;;;;;;;8.60;2.60;;;;;;;;;;5115962;27;20176;-79
2022/06/21 00:45:29;;;;;;;6.32;2.85;;;;;;;;;;5125492;27;20095;-79
2022/06/21 00:47:58;;;;;;;6.00;2.80;;;;;;;;;;5108895;28;20144;-79
2022/06/21 00:50:27;;;;;;;5.93;2.40;;;;;;;;;;5118385;27;20039;-79
2022/06/21 00:52:57;;;;;;;6.22;2.72;;;;;;;;;;5115040;27;20246;-79
2022/06/21 00:55:32;;;;;;;8.40;2.90;;;;;;;;;;5125337;27;20061;-79
2022/06/21 00:57:59;;;;;;;4.90;2.55;;;;;;;;;;5115899;27;20046;-79
2022/06/21 01:00:30;;;;;;;7.45;3.00;;;;;;;;;;5117978;27;20036;-79
2022/06/21 01:02:58;;;;;;;6.72;2.83;;;;;;;;;;5107279;27;20042;-79
2022/06/21 01:05:26;;;;;;;6.38;2.80;;;;;;;;;;5112329;27;20372;-79
2022/06/21 01:07:54;;;;;;;6.30;2.90;;;;;;;;;;5120987;27;20042;-79
2022/06/21 01:10:22;;;;;;;6.28;2.72;;;;;;;;;;5119986;27;20043;-79
2022/06/21 01:12:55;;;;;;;7.95;2.92;;;;;;;;;;5112791;27;20479;-79
2022/06/21 01:15:24;;;;;;;6.65;3.05;;;;;;;;;;5097302;27;20509;-79
2022/06/21 01:17:52;;;;;;;7.38;3.63;;;;;;;;;;5119899;27;20100;-79
2022/06/21 01:20:23;;;;;;;6.65;3.13;;;;;;;;;;5121500;27;20119;-79
2022/06/21 01:23:02;;;;;;;6.28;3.00;;;;;;;;;;5111781;27;20123;-79
2022/06/21 01:25:28;;;;;;;8.07;3.40;;;;;;;;;;5121819;27;20078;-79
2022/06/21 01:27:55;;;;;;;7.32;3.05;;;;;;;;;;5101481;27;20039;-79
2022/06/21 01:30:23;;;;;;;6.65;3.17;;;;;;;;;;5113437;27;20082;-79
2022/06/21 01:32:50;;;;;;;8.82;3.15;;;;;;;;;;5107241;27;20042;-79
2022/06/21 01:35:40;;;;;;;6.05;3.10;;;;;;;;;;5097220;27;20039;-79
2022/06/21 01:38:06;;;;;;;4.50;2.80;;;;;;;;;;5052334;28;20044;-79
2022/06/21 01:40:36;;;;;;;6.00;2.80;;;;;;;;;;5113225;27;20044;-79
2022/06/21 01:43:04;;;;;;;6.68;3.05;;;;;;;;;;5122854;27;20057;-79
2022/06/21 01:45:35;;;;;;;7.40;3.28;;;;;;;;;;5100462;27;20072;-79
2022/06/21 01:48:06;;;;;;;7.40;3.17;;;;;;;;;;5113730;27;20043;-79
2022/06/21 01:50:37;;;;;;;6.57;3.00;;;;;;;;;;5107602;28;20518;-79
2022/06/21 01:53:03;;;;;;;7.30;2.90;;;;;;;;;;5114718;27;20485;-79
2022/06/21 01:55:35;;;;;;;7.07;3.00;;;;;;;;;;5099901;28;20118;-79
2022/06/21 01:58:02;;;;;;;5.13;2.60;;;;;;;;;;5123780;28;20499;-79
2022/06/21 02:00:31;;;;;;;5.72;3.00;;;;;;;;;;5111291;28;20350;-79
2022/06/21 02:03:01;;;;;;;5.20;2.90;;;;;;;;;;5120733;28;20533;-79
2022/06/21 02:05:39;;;;;;;6.30;3.08;;;;;;;;;;5119591;28;20040;-79
2022/06/21 02:08:07;;;;;;;7.95;3.17;;;;;;;;;;5094112;28;20081;-79
2022/06/21 02:10:36;;;;;;;7.28;3.28;;;;;;;;;;5122463;28;20040;-79
2022/06/21 02:13:08;;;;;;;8.98;3.63;;;;;;;;;;5100507;28;20478;-79
2022/06/21 02:15:40;;;;;;;6.78;3.63;;;;;;;;;;5096249;28;20035;-80
2022/06/21 02:18:09;;;;;;;8.55;3.85;;;;;;;;;;5123912;28;20035;-79
2022/06/21 02:20:42;;;;;;;7.38;3.47;;;;;;;;;;5097744;28;20042;-79
2022/06/21 02:23:11;;;;;;;6.57;3.42;;;;;;;;;;5116531;28;20527;-79
2022/06/21 02:25:40;;;;;;;5.82;3.22;;;;;;;;;;5124155;28;20121;-80
2022/06/21 02:28:07;;;;;;;8.63;3.53;;;;;;;;;;5094974;28;20039;-79
2022/06/21 02:30:36;;;;;;;7.43;2.90;;;;;;;;;;5119148;28;20048;-79
2022/06/21 02:33:03;;;;;;;6.18;2.90;;;;;;;;;;5103084;28;20035;-80
2022/06/21 02:35:33;;;;;;;5.63;2.90;;;;;;;;;;5127778;28;20047;-80
2022/06/21 02:38:00;;;;;;;6.40;3.28;;;;;;;;;;5112033;28;20623;-79
2022/06/21 02:40:28;;;;;;;7.63;3.60;;;;;;;;;;5119064;28;20643;-79
2022/06/21 02:42:57;;;;;;;7.53;3.33;;;;;;;;;;5120249;28;20050;-79
2022/06/21 02:45:27;;;;;;;7.03;3.38;;;;;;;;;;5094162;28;20036;-79
2022/06/21 02:47:55;;;;;;;6.25;2.83;;;;;;;;;;5105540;28;20322;-80
2022/06/21 02:50:21;;;;;;;6.97;3.15;;;;;;;;;;5116722;28;20061;-79
2022/06/21 02:52:47;;;;;;;6.40;2.97;;;;;;;;;;5114317;28;20115;-79
2022/06/21 02:55:36;;;;;;;5.28;2.80;;;;;;;;;;5114886;28;20509;-79
2022/06/21 02:58:07;;;;;;;6.63;2.83;;;;;;;;;;5103323;28;20533;-79
2022/06/21 03:00:33;;;;;;;7.15;3.58;;;;;;;;;;5120075;28;20389;-79
2022/06/21 03:03:05;;;;;;;10.55;4.47;;;;;;;;;;5110906;28;20040;-79
2022/06/21 03:05:34;;;;;;;8.02;4.43;;;;;;;;;;5082765;27;20121;-79
2022/06/21 03:08:03;;;;;;;8.82;3.60;;;;;;;;;;5122197;27;20043;-79
2022/06/21 03:10:41;;;;;;;7.13;3.60;;;;;;;;;;5107532;27;20047;-79
2022/06/21 03:13:18;;;;;;;7.30;3.95;;;;;;;;;;5114729;27;20062;-79
2022/06/21 03:15:47;;;;;;;6.10;3.60;;;;;;;;;;5106340;28;20032;-79
2022/06/21 03:18:33;;;;;;;6.80;3.03;;;;;;;;;;5123109;27;20126;-80
2022/06/21 03:21:03;;;;;;;6.93;3.20;;;;;;;;;;5128452;27;20426;-79
2022/06/21 03:23:29;;;;;;;9.07;3.88;;;;;;;;;;5117549;27;20377;-79
2022/06/21 03:26:00;;;;;;;8.20;3.75;;;;;;;;;;5120008;27;20058;-79
2022/06/21 03:28:29;;;;;;;6.35;3.78;;;;;;;;;;5108569;27;20055;-79
2022/06/21 03:31:22;;;;;;;6.22;3.53;;;;;;;;;;5096834;27;20043;-79
2022/06/21 03:33:50;;;;;;;5.85;3.45;;;;;;;;;;5097967;28;20043;-79
2022/06/21 03:36:18;;;;;;;6.20;4.05;;;;;;;;;;5108615;27;20398;-79
2022/06/21 03:38:46;;;;;;;6.07;3.58;;;;;;;;;;5097007;27;20099;-79
2022/06/21 03:44:00;;;;;;;6.85;2.72;;;;;;;;;;5106859;27;20071;-79
2022/06/21 03:46:33;;;;;;;4.78;2.78;;;;;;;;;;5096653;27;20043;-79
2022/06/21 03:49:04;;;;;;;5.95;3.58;;;;;;;;;;5089832;28;20071;-78
2022/06/21 03:51:39;;;;;;;5.78;3.20;;;;;;;;;;5104125;27;20035;-79
2022/06/21 03:54:11;;;;;;;6.50;3.15;;;;;;;;;;5080084;28;20043;-79
2022/06/21 03:56:40;;;;;;;5.55;3.22;;;;;;;;;;5081033;27;20039;-79
2022/06/21 03:59:11;;;;;;;7.05;3.47;;;;;;;;;;5104227;28;20139;-79
2022/06/21 04:01:52;;;;;;;5.75;3.28;;;;;;;;;;5106274;27;20050;-79
2022/06/21 04:04:23;;;;;;;7.55;3.70;;;;;;;;;;5096731;27;20078;-80
2022/06/21 04:07:01;;;;;;;6.68;3.78;;;;;;;;;;5105395;28;20044;-80
2022/06/21 04:09:50;;;;;;;5.90;3.40;;;;;;;;;;5101092;28;20441;-79
2022/06/21 04:12:22;;;;;;;6.45;3.53;;;;;;;;;;5109435;28;20231;-79
2022/06/21 04:14:57;;;;;;;7.60;3.40;;;;;;;;;;5099833;28;20597;-79
2022/06/21 04:17:27;;;;;;;6.93;3.50;;;;;;;;;;5082236;28;20529;-79
2022/06/21 04:20:02;;;;;;;5.80;3.45;;;;;;;;;;5108684;27;20116;-79
2022/06/21 04:22:32;;;;;;;8.27;3.65;;;;;;;;;;5098948;27;20039;-79
2022/06/21 04:24:58;;;;;;;5.90;3.60;;;;;;;;;;5101200;28;20035;-79
2022/06/21 04:27:30;;;;;;;6.25;3.50;;;;;;;;;;5107513;27;20499;-79
2022/06/21 04:30:01;;;;;;;8.13;4.25;;;;;;;;;;5078880;27;20063;-79
2022/06/21 04:32:32;;;;;;;5.97;3.80;;;;;;;;;;5104754;28;20452;-79
2022/06/21 04:34:58;;;;;;;5.57;3.65;;;;;;;;;;5087936;27;20054;-79
2022/06/21 04:37:32;;;;;;;6.55;3.70;;;;;;;;;;5095280;28;20039;-79
2022/06/21 04:40:05;;;;;;;7.00;4.40;;;;;;;;;;5107077;28;20365;-79
2022/06/21 04:42:37;;;;;;;7.20;4.00;;;;;;;;;;5101752;27;20050;-79
2022/06/21 04:45:03;;;;;;;5.50;3.90;;;;;;;;;;5080469;28;20394;-79
2022/06/21 04:47:33;;;;;;;6.28;3.60;;;;;;;;;;5108529;27;20126;-79
2022/06/21 04:50:04;;;;;;;8.23;4.20;;;;;;;;;;5098393;27;20053;-79
2022/06/21 04:52:46;;;;;;;7.55;3.78;;;;;;;;;;5118026;27;20043;-79
2022/06/21 04:55:16;;;;;;;6.05;3.80;;;;;;;;;;5116150;27;20100;-79
2022/06/21 04:57:44;;;;;;;7.90;4.47;;;;;;;;;;5108958;27;20035;-78
2022/06/21 05:00:15;;;;;;;6.88;4.35;;;;;;;;;;5094588;28;20069;-79
2022/06/21 05:02:43;;;;;;;9.77;5.00;;;;;;;;;;5106633;28;20031;-78
2022/06/21 05:05:15;;;;;;;7.93;3.88;;;;;;;;;;5108548;27;20235;-79
2022/06/21 05:07:47;;;;;;;7.38;4.20;;;;;;;;;;5122518;27;20069;-79
2022/06/21 05:10:19;;;;;;;6.15;3.72;;;;;;;;;;5104672;27;20040;-79
2022/06/21 05:12:46;;;;;;;5.78;4.00;;;;;;;;;;5096283;27;20115;-78
2022/06/21 05:15:17;;;;;;;7.75;4.72;;;;;;;;;;5109567;27;20051;-79
2022/06/21 05:17:45;;;;;;;7.32;4.25;;;;;;;;;;5109401;27;20045;-80
2022/06/21 05:20:19;;;;;;;6.25;3.80;;;;;;;;;;5107163;27;20134;-79
2022/06/21 05:22:48;;;;;;;8.70;4.43;;;;;;;;;;5098423;27;20036;-79
2022/06/21 05:25:34;;;;;;;7.75;4.45;;;;;;;;;;5079123;28;20054;-78
2022/06/21 05:28:01;;;;;;;10.30;5.13;;;;;;;;;;5093816;28;20313;-79
2022/06/21 05:30:41;;;;;;;7.47;5.05;;;;;;;;;;5096458;27;20055;-79
2022/06/21 05:33:14;;;;;;;10.32;5.63;;;;;;;;;;5095925;27;20035;-79
2022/06/21 05:35:41;;;;;;;8.23;5.85;;;;;;;;;;5105090;27;20458;-78
2022/06/21 05:38:11;;;;;;;10.45;5.93;;;;;;;;;;5100667;28;20137;-78
2022/06/21 05:40:41;;;;;;;8.90;5.03;;;;;;;;;;5106910;27;20456;-79
2022/06/21 05:43:18;;;;;;;9.73;5.13;;;;;;;;;;5121919;27;20047;-79
2022/06/21 05:45:52;;;;;;;7.65;4.93;;;;;;;;;;5115704;27;20036;-82
2022/06/21 05:48:29;;;;;;;7.67;5.00;;;;;;;;;;5079960;28;20044;-79
2022/06/21 05:50:55;;;;;;;6.68;4.60;;;;;;;;;;5086500;28;20039;-79
2022/06/21 05:53:28;;;;;;;7.03;4.95;;;;;;;;;;5088622;28;20031;-78
2022/06/21 05:55:54;;;;;;;8.68;5.13;;;;;;;;;;5108751;28;20406;-79
2022/06/21 05:58:22;;;;;;;8.68;6.00;;;;;;;;;;5107524;28;20436;-78
2022/06/21 06:00:49;;;;;;;7.97;5.38;;;;;;;;;;5106699;28;20313;-79
2022/06/21 06:03:26;;;;;;;11.13;7.00;;;;;;;;;;5101071;28;20046;-79
2022/06/21 06:05:53;;;;;;;11.10;6.38;;;;;;;;;;5111327;28;20573;-79
2022/06/21 06:08:22;;;;;;;9.95;6.55;;;;;;;;;;5095027;28;20043;-78
2022/06/21 06:10:49;;;;;;;8.25;5.55;;;;;;;;;;5102266;28;20118;-79
2022/06/21 06:13:17;;;;;;;9.98;5.88;;;;;;;;;;5108923;28;20552;-78
2022/06/21 06:15:49;;;;;;;10.57;6.80;;;;;;;;;;5122340;28;20043;-79
2022/06/21 06:18:34;;;;;;;8.52;6.57;;;;;;;;;;5107707;28;20492;-77
2022/06/21 06:21:22;;;;;;;9.18;5.68;;;;;;;;;;5076315;28;20092;-79
2022/06/21 06:24:12;;;;;;;11.38;5.80;;;;;;;;;;5111396;28;20046;-78
2022/06/21 06:26:40;;;;;;;9.38;5.78;;;;;;;;;;5118754;28;20048;-77
2022/06/21 06:29:26;;;;;;;9.18;5.43;;;;;;;;;;5120626;28;20342;-78
2022/06/21 06:31:57;;;;;;;8.57;4.90;;;;;;;;;;5122605;28;20035;-78
2022/06/21 06:34:25;;;;;;;7.20;4.30;;;;;;;;;;5119431;28;20086;-78
2022/06/21 06:36:57;;;;;;;8.88;5.85;;;;;;;;;;5119732;28;20093;-78
2022/06/21 06:39:25;;;;;;;9.02;5.00;;;;;;;;;;5089288;27;20522;-78
2022/06/21 06:42:00;;;;;;;10.43;5.30;;;;;;;;;;5126007;27;20437;-79
2022/06/21 06:44:28;;;;;;;10.07;5.60;;;;;;;;;;5117639;27;20036;-79
2022/06/21 06:46:58;;;;;;;9.30;5.93;;;;;;;;;;5125650;27;20039;-79
2022/06/21 06:49:48;;;;;;;10.20;6.45;;;;;;;;;;5132112;27;20081;-78
2022/06/21 06:52:21;;;;;;;13.20;7.40;;;;;;;;;;5131852;27;20089;-79
2022/06/21 06:54:55;;;;;;;10.98;6.10;;;;;;;;;;5100364;28;20035;-79
2022/06/21 06:57:28;;;;;;;15.63;6.60;;;;;;;;;;5110734;27;20424;-79
2022/06/21 06:59:56;;;;;;;11.23;6.90;;;;;;;;;;5101661;27;20033;-79
2022/06/21 07:02:22;;;;;;;9.57;5.97;;;;;;;;;;5114337;27;20046;-78
2022/06/21 07:04:51;;;;;;;9.63;5.80;;;;;;;;;;5116337;27;20035;-79
2022/06/21 07:07:21;;;;;;;11.68;6.20;;;;;;;;;;5107496;27;20114;-78
2022/06/21 07:09:56;;;;;;;9.48;5.55;;;;;;;;;;5120293;27;20031;-78
2022/06/21 07:12:27;;;;;;;8.68;6.30;;;;;;;;;;5125057;27;20387;-79
2022/06/21 07:14:54;;;;;;;11.07;6.78;;;;;;;;;;5127296;27;20047;-78
2022/06/21 07:17:20;;;;;;;8.48;5.10;;;;;;;;;;5099311;27;20689;-78
2022/06/21 07:19:47;;;;;;;9.00;5.15;;;;;;;;;;5104385;28;20040;-78
2022/06/21 07:22:36;;;;;;;8.88;4.50;;;;;;;;;;5110536;28;20097;-77
2022/06/21 07:25:05;;;;;;;8.95;4.80;;;;;;;;;;5090243;28;20082;-79
2022/06/21 07:27:35;;;;;;;11.68;4.72;;;;;;;;;;5118683;27;20062;-78
2022/06/21 07:30:03;;;;;;;6.85;4.43;;;;;;;;;;5117673;27;20047;-79
2022/06/21 07:32:33;;;;;;;8.82;4.97;;;;;;;;;;5127084;27;20039;-78
2022/06/21 07:35:05;;;;;;;12.40;5.65;;;;;;;;;;5115494;27;20043;-79
2022/06/21 07:37:52;;;;;;;7.82;4.30;;;;;;;;;;5120418;27;20074;-78
2022/06/21 07:40:25;;;;;;;7.55;3.97;;;;;;;;;;5109454;27;20074;-79
2022/06/21 07:43:00;;;;;;;8.02;3.85;;;;;;;;;;5098058;27;20043;-78
2022/06/21 07:45:29;;;;;;;11.00;4.82;;;;;;;;;;5120848;27;20148;-78
2022/06/21 07:47:59;;;;;;;8.07;4.60;;;;;;;;;;5107548;27;20035;-79
2022/06/21 07:50:44;;;;;;;7.45;4.78;;;;;;;;;;5096374;27;20035;-79
2022/06/21 07:53:10;;;;;;;;;;;;;;;;;;5121912;27;20487;-78
2022/06/21 07:55:38;;;;;;;8.45;4.65;;;;;;;;;;5107552;28;20065;-79
2022/06/21 07:58:20;;;;;;;8.57;4.53;;;;;;;;;;5126407;27;20499;-79
2022/06/21 08:06:44;;;;;;;8.57;4.18;;;;;;;;;;5091472;28;20094;-79
2022/06/21 08:09:19;;;;;;;9.43;5.07;;;;;;;;;;5074543;28;20066;-78
2022/06/21 08:11:47;;;;;;;7.18;4.88;;;;;;;;;;5125132;27;20429;-78
2022/06/21 08:14:13;;;;;;;9.30;4.45;;;;;;;;;;5091424;28;20563;-78
2022/06/21 08:16:46;;;;;;;7.30;4.10;;;;;;;;;;5097613;27;20062;-78
2022/06/21 08:19:15;;;;;;;9.48;4.70;;;;;;;;;;5126269;27;20077;-78
2022/06/21 08:21:47;;;;;;;9.93;5.35;;;;;;;;;;5091422;28;20165;-81
2022/06/21 08:24:18;;;;;;;8.30;4.40;;;;;;;;;;5104709;27;20118;-78
2022/06/21 08:26:54;;;;;;;7.30;3.58;;;;;;;;;;5103266;27;20077;-78
2022/06/21 08:29:22;;;;;;;8.45;3.80;;;;;;;;;;5132204;27;20115;-78
2022/06/21 08:31:54;;;;;;;8.02;5.15;;;;;;;;;;5114963;27;20080;-77
2022/06/21 08:34:24;;;;;;;8.40;4.10;;;;;;;;;;5132155;27;20046;-78
2022/06/21 08:36:55;;;;;;;8.10;4.30;;;;;;;;;;5132317;27;20027;-78
2022/06/21 08:39:27;;;;;;;7.32;3.90;;;;;;;;;;5131496;27;20042;-77
2022/06/21 08:41:59;;;;;;;7.47;4.00;;;;;;;;;;5094467;28;20039;-78
2022/06/21 08:44:44;;;;;;;7.50;3.40;;;;;;;;;;5111174;28;20039;-79
2022/06/21 08:47:11;;;;;;;;;;;;;;;;;;5111735;28;20047;-80
2022/06/21 08:49:48;;;;;;;7.82;3.80;;;;;;;;;;5094532;28;20358;-79
2022/06/21 08:52:42;;;;;;;5.57;2.90;;;;;;;;;;5111281;28;20050;-80
2022/06/21 08:55:19;;;;;;;9.90;5.55;;;;;;;;;;5124712;27;20059;-78
2022/06/21 08:57:45;;;;;;;10.45;4.97;;;;;;;;;;5131436;27;20078;-78
2022/06/21 09:00:18;;;;;;;11.63;4.60;;;;;;;;;;5114522;27;20070;-78
2022/06/21 09:03:02;;;;;;;9.70;4.82;;;;;;;;;;5113762;27;20032;-79
2022/06/21 09:05:35;;;;;;;10.77;4.70;;;;;;;;;;5114109;27;20039;-78
2022/06/21 09:08:01;;;;;;;7.57;4.18;;;;;;;;;;5104166;28;20566;-78
2022/06/21 09:10:41;;;;;;;7.13;4.45;;;;;;;;;;5094205;28;20514;-79
2022/06/21 09:13:21;;;;;;;8.45;4.55;;;;;;;;;;5111018;28;20118;-79
2022/06/21 09:16:06;;;;;;;10.70;4.75;;;;;;;;;;5110808;28;20080;-79
2022/06/21 09:18:51;;;;;;;7.97;4.10;;;;;;;;;;5110986;28;20043;-80
2022/06/21 09:21:17;;;;;;;;;;;;;;;;;;5099564;27;20561;-78
2022/06/21 09:24:00;;;;;;;8.05;4.15;;;;;;;;;;5125664;27;20598;-80
2022/06/21 09:26:30;;;;;;;5.90;3.10;;;;;;;;;;5073254;28;20044;-79
2022/06/21 09:29:00;;;;;;;6.35;2.95;;;;;;;;;;5080464;27;20130;-79
2022/06/21 09:31:45;;;;;;;5.45;3.10;;;;;;;;;;5130633;27;20047;-78
2022/06/21 09:34:20;;;;;;;10.25;3.97;;;;;;;;;;5114198;27;20080;-79
2022/06/21 09:36:51;;;;;;;5.43;2.70;;;;;;;;;;5113672;27;20096;-78
2022/06/21 09:39:30;;;;;;;6.35;3.40;;;;;;;;;;5131243;27;20038;-78
2022/06/21 09:42:07;;;;;;;6.32;2.65;;;;;;;;;;5128227;27;20749;-78
2022/06/21 09:44:36;;;;;;;7.80;3.08;;;;;;;;;;5112600;27;20072;-79
2022/06/21 09:47:09;;;;;;;9.00;3.80;;;;;;;;;;5130848;27;20555;-79
2022/06/21 09:49:50;;;;;;;7.22;3.85;;;;;;;;;;5130507;27;20035;-79
2022/06/21 09:52:23;;;;;;;6.35;3.58;;;;;;;;;;5109100;27;20063;-78
2022/06/21 09:55:13;;;;;;;5.82;3.03;;;;;;;;;;5113574;28;20039;-79
2022/06/21 09:57:44;;;;;;;7.20;3.17;;;;;;;;;;5094463;28;20043;-79
2022/06/21 10:00:10;;;;;;;8.15;3.35;;;;;;;;;;5111928;28;20043;-77
2022/06/21 10:02:49;;;;;;;9.15;3.40;;;;;;;;;;5130267;27;20042;-78
2022/06/21 10:05:20;;;;;;;5.35;2.80;;;;;;;;;;5119365;27;20057;-79
2022/06/21 10:07:49;;;;;;;7.40;3.42;;;;;;;;;;5110049;28;20092;-78
2022/06/21 10:10:19;;;;;;;4.90;2.50;;;;;;;;;;5081157;28;20039;-79
2022/06/21 10:12:45;;;;;;;7.18;2.85;;;;;;;;;;5132248;27;20126;-78
2022/06/21 10:15:30;;;;;;;4.82;2.47;;;;;;;;;;5134290;27;20050;-79
2022/06/21 10:18:07;;;;;;;7.43;2.50;;;;;;;;;;5114500;27;20050;-78
2022/06/21 10:20:34;;;;;;;6.25;2.70;;;;;;;;;;5104516;27;20474;-79
2022/06/21 10:23:01;;;;;;;4.90;2.10;;;;;;;;;;5121352;27;20072;-78
2022/06/21 10:25:27;;;;;;;7.75;2.70;;;;;;;;;;5097285;28;20044;-79
2022/06/21 10:27:56;;;;;;;6.03;2.30;;;;;;;;;;5112105;28;20046;-77
2022/06/21 10:30:28;;;;;;;7.47;2.47;;;;;;;;;;5110513;28;20088;-79
2022/06/21 10:33:07;;;;;;;4.88;2.33;;;;;;;;;;5110867;28;20050;-80
2022/06/21 10:35:45;;;;;;;6.07;2.88;;;;;;;;;;5111815;28;20043;-79
2022/06/21 10:38:30;;;;;;;5.55;2.10;;;;;;;;;;5119044;27;20405;-79
2022/06/21 10:41:15;;;;;;;6.45;2.30;;;;;;;;;;5118040;27;20533;-79
2022/06/21 10:44:00;;;;;;;4.55;2.10;;;;;;;;;;5099205;27;20051;-79
2022/06/21 10:46:27;;;;;;;5.57;2.63;;;;;;;;;;5121556;27;20495;-80
2022/06/21 10:49:02;;;;;;;5.95;2.72;;;;;;;;;;5112114;28;20494;-81
2022/06/21 10:51:44;;;;;;;4.20;1.92;;;;;;;;;;5113565;28;20036;-80
2022/06/21 10:54:11;;;;;;;6.60;2.78;;;;;;;;;;5113823;28;20092;-80
2022/06/21 11:01:16;;;;;;;5.38;2.15;;;;;;;;;;5092766;28;20040;-79
2022/06/21 11:02:23;;;;;;;5.30;2.65;;;;;;;;;;5103440;28;20093;-80
2022/06/21 11:04:59;;;;;;;4.28;2.30;;;;;;;;;;5093200;28;20044;-80
2022/06/21 11:07:25;;;;;;;6.68;2.60;;;;;;;;;;5093087;28;20044;-78
2022/06/21 11:09:54;;;;;;;5.80;2.50;;;;;;;;;;5093368;28;20040;-81
2022/06/21 11:15:23;;;;;;;9.23;2.72;;;;;;;;;;5092479;28;20044;-79
2022/06/21 11:17:56;;;;;;;5.07;2.42;;;;;;;;;;5092861;28;20376;-79
2022/06/21 11:20:41;;;;;;;3.75;2.10;;;;;;;;;;5075692;28;20043;-81
2022/06/21 11:23:15;;;;;;;3.03;1.70;;;;;;;;;;5100589;28;20125;-81
2022/06/21 11:25:47;;;;;;;3.17;1.70;;;;;;;;;;5122147;27;20049;-80
2022/06/21 11:28:36;;;;;;;3.28;1.63;;;;;;;;;;5132785;27;20569;-80
2022/06/21 11:31:07;;;;;;;5.72;2.20;;;;;;;;;;5127507;27;20048;-80
2022/06/21 11:33:33;;;;;;;5.65;2.33;;;;;;;;;;5122587;27;20092;-79
2022/06/21 11:36:11;;;;;;;6.57;2.35;;;;;;;;;;5133068;27;20046;-80
2022/06/21 11:38:46;;;;;;;5.38;2.22;;;;;;;;;;5116561;27;20494;-80
2022/06/21 11:44:43;;;;;;;5.50;2.05;;;;;;;;;;5130842;27;20583;-81
2022/06/21 11:47:09;;;;;;;;;;;;;;;;;;5129887;27;20035;-80
2022/06/21 11:49:36;;;;;;;4.45;1.88;;;;;;;;;;5130440;27;19926;-81
2022/06/21 11:52:12;;;;;;;4.00;2.10;;;;;;;;;;5128200;27;20126;-80
2022/06/21 11:54:44;;;;;;;6.57;2.30;;;;;;;;;;5124554;27;20666;-80
2022/06/21 11:57:30;;;;;;;4.90;1.77;;;;;;;;;;5110185;28;20452;-79
2022/06/21 12:00:07;;;;;;;3.65;2.20;;;;;;;;;;5126998;27;20406;-80
2022/06/21 12:02:42;;;;;;;4.00;1.80;;;;;;;;;;5124398;27;20384;-80
2022/06/21 12:05:28;;;;;;;8.07;2.30;;;;;;;;;;5121077;27;20042;-80
2022/06/21 12:07:54;;;;;;;;;;;;;;;;;;5112540;27;20080;-80
2022/06/21 12:10:41;;;;;;;5.65;2.20;;;;;;;;;;5109768;28;19919;-80
2022/06/21 12:13:07;;;;;;;6.05;1.92;;;;;;;;;;5123785;27;20468;-80
2022/06/21 12:15:44;;;;;;;3.88;2.00;;;;;;;;;;5132361;27;20469;-80
2022/06/21 12:18:13;;;;;;;5.25;2.17;;;;;;;;;;5127402;27;20039;-81
2022/06/21 12:20:58;;;;;;;7.97;2.13;;;;;;;;;;5121390;27;20401;-82
2022/06/21 12:23:33;;;;;;;4.93;2.13;;;;;;;;;;5096996;28;20431;-81
2022/06/21 12:25:59;;;;;;;5.37;2.20;;;;;;;;;;5080915;27;20146;-81
2022/06/21 12:28:26;;;;;;;4.72;1.80;;;;;;;;;;5130777;27;20509;-80
2022/06/21 12:30:53;;;;;;;4.82;2.00;;;;;;;;;;5119299;27;20082;-81
2022/06/21 12:33:23;;;;;;;4.95;1.90;;;;;;;;;;5111051;27;20034;-80
2022/06/21 12:36:19;;;;;;;5.72;2.20;;;;;;;;;;5130812;27;20046;-82
2022/06/21 12:38:51;;;;;;;4.15;2.10;;;;;;;;;;5114919;27;20588;-82
2022/06/21 12:41:44;;;;;;;5.97;1.75;;;;;;;;;;5132704;27;20051;-82
2022/06/21 12:44:23;;;;;;;6.15;2.15;;;;;;;;;;5091515;28;20065;-83
2022/06/21 12:46:55;;;;;;;4.05;1.88;;;;;;;;;;5091361;28;20098;-82
2022/06/21 12:49:33;;;;;;;4.88;1.80;;;;;;;;;;5091202;28;20040;-81
2022/06/21 12:52:03;;;;;;;6.20;1.88;;;;;;;;;;5090314;27;20043;-82
2022/06/21 12:54:38;;;;;;;2.33;1.42;;;;;;;;;;5119606;27;20037;-81
2022/06/21 12:57:16;;;;;;;3.20;1.73;;;;;;;;;;5111644;28;20432;-81
2022/06/21 13:00:00;;;;;;;4.55;1.90;;;;;;;;;;5109284;28;20063;-82
2022/06/21 13:02:26;;;;;;;8.40;2.08;;;;;;;;;;5111440;28;20418;-82
2022/06/21 13:04:58;;;;;;;5.22;1.80;;;;;;;;;;5111173;28;20043;-81
2022/06/21 13:07:34;;;;;;;5.22;1.92;;;;;;;;;;5094462;28;20039;-80
2022/06/21 13:10:06;;;;;;;3.90;1.80;;;;;;;;;;5111087;28;20031;-81
2022/06/21 13:12:36;;;;;;;5.40;2.08;;;;;;;;;;5111199;28;20200;-83
2022/06/21 13:15:08;;;;;;;3.67;1.85;;;;;;;;;;5111172;28;20039;-82
2022/06/21 13:17:53;;;;;;;5.78;1.80;;;;;;;;;;5098996;27;20042;-82
2022/06/21 13:20:25;;;;;;;4.63;1.90;;;;;;;;;;5113643;27;20046;-82
2022/06/21 13:23:00;;;;;;;3.08;1.65;;;;;;;;;;5125383;27;20209;-82
2022/06/21 13:25:53;;;;;;;3.53;1.50;;;;;;;;;;5099157;27;20038;-83
2022/06/21 13:28:38;;;;;;;3.83;1.65;;;;;;;;;;5095197;28;20040;-81
2022/06/21 13:31:13;;;;;;;5.25;1.80;;;;;;;;;;5099604;27;20051;-82
2022/06/21 13:33:39;;;;;;;5.70;1.80;;;;;;;;;;5117844;27;20170;-83
2022/06/21 13:36:14;;;;;;;5.78;1.95;;;;;;;;;;5108300;28;20387;-83
2022/06/21 13:38:59;;;;;;;3.90;1.70;;;;;;;;;;5124623;27;20042;-83
2022/06/21 13:44:16;;;;;;;2.65;1.50;;;;;;;;;;5111651;27;20048;-82
2022/06/21 13:46:46;;;;;;;3.60;1.52;;;;;;;;;;5106349;28;20043;-83
2022/06/21 13:49:20;;;;;;;3.05;1.70;;;;;;;;;;5117163;27;20118;-81
2022/06/21 13:52:16;;;;;;;2.30;1.40;;;;;;;;;;5113917;27;20198;-82
2022/06/21 13:54:51;;;;;;;4.50;1.60;;;;;;;;;;5050371;28;20056;-85
2022/06/21 13:57:18;;;;;;;3.33;1.20;;;;;;;;;;5110477;27;20088;-83
2022/06/21 13:59:47;;;;;;;4.68;1.55;;;;;;;;;;5093178;28;20039;-83
2022/06/21 14:02:26;;;;;;;3.05;1.65;;;;;;;;;;5071211;28;20067;-83
2022/06/21 14:04:52;;;;;;;3.28;1.75;;;;;;;;;;5070910;28;20032;-82
2022/06/21 14:07:19;;;;;;;5.30;1.73;;;;;;;;;;5070683;28;20047;-83
2022/06/21 14:09:51;;;;;;;3.30;1.58;;;;;;;;;;5070407;28;20042;-83
2022/06/21 14:12:23;;;;;;;3.25;1.58;;;;;;;;;;5087177;28;20047;-82
2022/06/21 14:15:05;;;;;;;4.10;1.73;;;;;;;;;;5087998;28;20085;-82
2022/06/21 14:17:36;;;;;;;3.83;1.30;;;;;;;;;;5087237;28;20094;-83
2022/06/21 14:20:09;;;;;;;2.35;1.40;;;;;;;;;;5087656;28;20515;-83
2022/06/21 14:22:38;;;;;;;3.55;1.50;;;;;;;;;;5088065;28;20054;-82
2022/06/21 14:25:08;;;;;;;3.03;1.40;;;;;;;;;;5087063;28;20043;-82
2022/06/21 14:27:34;;;;;;;4.40;1.77;;;;;;;;;;5098694;28;20064;-82
2022/06/21 14:30:05;;;;;;;3.05;1.45;;;;;;;;;;5122813;28;20051;-84
2022/06/21 14:32:52;;;;;;;4.03;1.70;;;;;;;;;;5111524;28;20079;-82
2022/06/21 14:35:20;;;;;;;8.95;2.05;;;;;;;;;;5101341;28;20075;-83
2022/06/21 14:38:05;;;;;;;2.30;1.48;;;;;;;;;;5104703;28;20050;-83
2022/06/21 14:40:34;;;;;;;5.80;1.52;;;;;;;;;;5095805;28;20043;-83
2022/06/21 14:43:21;;;;;;;3.20;1.42;;;;;;;;;;5102464;28;20523;-82
2022/06/21 14:45:50;;;;;;;5.43;1.88;;;;;;;;;;5122518;28;20046;-81
2022/06/21 14:48:31;;;;;;;3.47;1.70;;;;;;;;;;5094151;28;20653;-81
2022/06/21 14:51:01;;;;;;;5.90;1.85;;;;;;;;;;5118899;28;20035;-81
2022/06/21 14:53:30;;;;;;;5.05;1.92;;;;;;;;;;5104121;28;20031;-81
2022/06/21 14:56:00;;;;;;;3.03;1.60;;;;;;;;;;5094017;28;20040;-82
2022/06/21 14:58:26;;;;;;;3.28;1.60;;;;;;;;;;5122145;28;20444;-81
2022/06/21 15:00:52;;;;;;;4.25;1.77;;;;;;;;;;5120021;27;20039;-81
2022/06/21 15:03:21;;;;;;;5.32;1.95;;;;;;;;;;5101314;28;20122;-82
2022/06/21 15:05:57;;;;;;;3.05;1.58;;;;;;;;;;5111406;28;20639;-82
2022/06/21 15:08:43;;;;;;;4.85;1.63;;;;;;;;;;5097248;27;20035;-80
2022/06/21 15:11:10;;;;;;;2.92;1.73;;;;;;;;;;5070529;27;20176;-80
2022/06/21 15:13:42;;;;;;;4.60;1.80;;;;;;;;;;5112753;27;20059;-82
2022/06/21 15:16:22;;;;;;;3.67;1.85;;;;;;;;;;5090311;28;20032;-82
2022/06/21 15:21:59;;;;;;;5.47;1.83;;;;;;;;;;5103551;28;20093;-82
2022/06/21 15:24:28;;;;;;;4.72;1.52;;;;;;;;;;5108375;27;20075;-83
2022/06/21 15:27:08;;;;;;;5.32;2.10;;;;;;;;;;5108537;27;20040;-81
2022/06/21 15:29:38;;;;;;;4.60;1.60;;;;;;;;;;5109829;27;20050;-81
2022/06/21 15:32:12;;;;;;;4.43;1.90;;;;;;;;;;5105771;27;20052;-80
2022/06/21 15:34:40;;;;;;;2.97;1.70;;;;;;;;;;5090443;27;20043;-81
2022/06/21 15:37:25;;;;;;;4.65;1.92;;;;;;;;;;5107868;28;20032;-83
2022/06/21 15:39:53;;;;;;;4.05;1.63;;;;;;;;;;5106684;27;20036;-83